Time;durP1;ratioP1;P1;durP2;ratioP2;P2;SDS_P1;SDS_P2;PMS_P1;PMS_P2;Temp;Humidity;BMP_temperature;BMP_pressure;BME280_temperature;BME280_humidity;BME280_pressure;Samples;Min_cycle;Max_cycle;Signal;HPM_P1;HPM_P2
2022/03/26 00:00:45;;;;;;;24.75;16.13;;;5.30;99.90;;;;;;5038111;28;20179;-57
2022/03/26 00:03:15;;;;;;;23.85;16.33;;;5.30;99.90;;;;;;5034584;28;20118;-57
2022/03/26 00:05:43;;;;;;;28.38;18.40;;;5.30;99.90;;;;;;5034741;28;20085;-57
2022/03/26 00:08:10;;;;;;;31.42;18.00;;;5.40;99.90;;;;;;5030509;28;20371;-58
2022/03/26 00:10:36;;;;;;;23.58;17.10;;;5.40;99.90;;;;;;5039641;28;20051;-57
2022/03/26 00:13:03;;;;;;;30.92;18.30;;;5.40;99.90;;;;;;5041764;28;20044;-57
2022/03/26 00:15:29;;;;;;;27.30;17.83;;;5.40;99.90;;;;;;5036800;28;20195;-57
2022/03/26 00:17:56;;;;;;;23.60;17.15;;;5.40;99.90;;;;;;5033848;28;20045;-57
2022/03/26 00:20:22;;;;;;;27.02;17.33;;;5.40;99.90;;;;;;5037980;28;20056;-57
2022/03/26 00:22:48;;;;;;;28.00;17.75;;;5.40;99.90;;;;;;5039225;28;20036;-56
2022/03/26 00:25:16;;;;;;;28.10;16.45;;;5.30;99.90;;;;;;5026566;28;20045;-58
2022/03/26 00:27:42;;;;;;;28.58;17.08;;;5.30;99.90;;;;;;5026166;28;20075;-57
2022/03/26 00:30:11;;;;;;;27.33;18.15;;;5.30;99.90;;;;;;5018416;28;20481;-57
2022/03/26 00:32:37;;;;;;;32.05;17.98;;;5.30;99.90;;;;;;5038651;28;20102;-57
2022/03/26 00:35:04;;;;;;;32.50;19.48;;;5.30;99.90;;;;;;5037982;28;20415;-56
2022/03/26 00:37:31;;;;;;;30.80;18.55;;;5.30;99.90;;;;;;5040987;28;20068;-58
2022/03/26 00:39:57;;;;;;;25.45;16.67;;;5.10;99.90;;;;;;5037054;28;20044;-57
2022/03/26 00:42:23;;;;;;;24.48;16.00;;;5.10;99.90;;;;;;5020041;28;20041;-57
2022/03/26 00:44:49;;;;;;;25.88;17.25;;;5.10;99.90;;;;;;5036161;28;20153;-57
2022/03/26 00:47:15;;;;;;;25.98;18.27;;;5.10;99.90;;;;;;5044418;28;20045;-57
2022/03/26 00:49:41;;;;;;;30.73;18.38;;;5.10;99.90;;;;;;5038642;28;20067;-57
2022/03/26 00:52:08;;;;;;;30.55;19.58;;;5.00;99.90;;;;;;5040049;28;20045;-57
2022/03/26 00:54:34;;;;;;;29.45;18.70;;;5.00;99.90;;;;;;5029358;28;20053;-57
2022/03/26 00:57:00;;;;;;;29.95;19.55;;;5.10;99.90;;;;;;5037812;28;20627;-57
2022/03/26 00:59:26;;;;;;;25.63;19.25;;;5.10;99.90;;;;;;5034272;28;20045;-56
2022/03/26 01:01:52;;;;;;;29.25;18.35;;;5.10;99.90;;;;;;5033079;28;20056;-57
2022/03/26 01:04:19;;;;;;;28.65;19.35;;;5.10;99.90;;;;;;5057896;28;20303;-57
2022/03/26 01:06:46;;;;;;;31.13;19.70;;;5.00;99.90;;;;;;5036647;28;20048;-57
2022/03/26 01:09:12;;;;;;;29.77;19.90;;;5.00;99.90;;;;;;5041123;28;20041;-57
2022/03/26 01:11:39;;;;;;;26.77;18.75;;;4.90;99.90;;;;;;5025049;28;20044;-57
2022/03/26 01:14:05;;;;;;;28.23;20.38;;;4.90;99.90;;;;;;5024773;28;20131;-57
2022/03/26 01:16:32;;;;;;;34.97;21.20;;;4.90;99.90;;;;;;5033924;28;20472;-57
2022/03/26 01:18:58;;;;;;;30.88;20.63;;;4.90;99.90;;;;;;5039019;28;20053;-57
2022/03/26 01:21:25;;;;;;;31.85;21.10;;;4.90;99.90;;;;;;5027687;28;20042;-57
2022/03/26 01:23:51;;;;;;;31.02;21.55;;;4.90;99.90;;;;;;5038652;28;20037;-57
2022/03/26 01:26:18;;;;;;;35.15;21.73;;;4.80;99.90;;;;;;5041945;28;20138;-57
2022/03/26 01:28:45;;;;;;;33.65;21.17;;;4.80;99.90;;;;;;5030652;28;20241;-57
2022/03/26 01:31:11;;;;;;;38.47;22.35;;;4.70;99.90;;;;;;5034042;28;20513;-57
2022/03/26 01:33:37;;;;;;;35.00;23.45;;;4.70;99.90;;;;;;5036469;28;20045;-56
2022/03/26 01:36:04;;;;;;;37.42;23.00;;;4.70;99.90;;;;;;5056121;28;20385;-57
2022/03/26 01:38:30;;;;;;;36.45;23.48;;;4.50;99.90;;;;;;5030975;28;20118;-57
2022/03/26 01:40:57;;;;;;;34.65;20.77;;;4.50;99.90;;;;;;5042740;28;20053;-57
2022/03/26 01:43:23;;;;;;;36.33;23.33;;;4.50;99.90;;;;;;5021132;28;20049;-57
2022/03/26 01:45:49;;;;;;;33.38;22.13;;;4.40;99.90;;;;;;5041699;28;20511;-57
2022/03/26 01:48:15;;;;;;;35.17;22.42;;;4.40;99.90;;;;;;5006417;28;20041;-56
2022/03/26 01:50:42;;;;;;;37.90;24.33;;;4.30;99.90;;;;;;5044552;28;20472;-56
2022/03/26 01:53:08;;;;;;;39.05;24.02;;;4.30;99.90;;;;;;5057531;28;20079;-55
2022/03/26 01:55:35;;;;;;;35.15;24.15;;;4.30;99.90;;;;;;5030002;28;20052;-57
2022/03/26 01:58:01;;;;;;;34.00;22.13;;;4.20;99.90;;;;;;5035625;28;20541;-56
2022/03/26 02:00:28;;;;;;;36.55;23.08;;;4.20;99.90;;;;;;5033993;28;20100;-57
2022/03/26 02:02:54;;;;;;;34.50;23.45;;;4.20;99.90;;;;;;5040526;28;20409;-57
2022/03/26 02:05:21;;;;;;;39.60;23.33;;;4.20;99.90;;;;;;5037970;28;20091;-56
2022/03/26 02:07:49;;;;;;;39.25;25.02;;;4.20;99.90;;;;;;5040052;28;20553;-57
2022/03/26 02:10:16;;;;;;;40.65;26.23;;;4.20;99.90;;;;;;5037061;28;20068;-57
2022/03/26 02:12:45;;;;;;;39.50;24.33;;;4.20;99.90;;;;;;5055588;28;20051;-56
2022/03/26 02:15:12;;;;;;;41.25;24.95;;;4.10;99.90;;;;;;5041811;28;20102;-57
2022/03/26 02:17:38;;;;;;;43.08;24.40;;;4.10;99.90;;;;;;5020924;28;20392;-57
2022/03/26 02:20:10;;;;;;;41.13;25.80;;;4.10;99.90;;;;;;5037825;28;20086;-57
2022/03/26 02:22:37;;;;;;;43.92;26.27;;;4.10;99.90;;;;;;5027778;28;20049;-57
2022/03/26 02:25:05;;;;;;;38.05;26.33;;;4.10;99.90;;;;;;5029086;28;20048;-57
2022/03/26 02:27:32;;;;;;;44.67;27.75;;;4.00;99.90;;;;;;5040749;28;20131;-59
2022/03/26 02:29:59;;;;;;;42.97;28.23;;;4.00;99.90;;;;;;5039326;28;20332;-57
2022/03/26 02:32:28;;;;;;;41.40;27.08;;;4.00;99.90;;;;;;5014933;28;20048;-57
2022/03/26 02:34:55;;;;;;;41.90;27.40;;;3.90;99.90;;;;;;5040780;28;20049;-57
2022/03/26 02:37:22;;;;;;;51.17;31.65;;;3.90;99.90;;;;;;5039664;28;20036;-57
2022/03/26 02:39:48;;;;;;;51.20;31.83;;;3.90;99.90;;;;;;5036362;28;20063;-57
2022/03/26 02:42:15;;;;;;;52.90;34.60;;;3.80;99.90;;;;;;5030071;28;20416;-56
2022/03/26 02:44:42;;;;;;;54.60;34.50;;;3.80;99.90;;;;;;5009475;28;20060;-57
2022/03/26 02:47:10;;;;;;;55.03;34.70;;;3.80;99.90;;;;;;5056062;28;20508;-55
2022/03/26 02:49:37;;;;;;;57.05;33.90;;;3.70;99.90;;;;;;5025215;28;20417;-54
2022/03/26 02:52:03;;;;;;;56.95;34.45;;;3.70;99.90;;;;;;5037113;28;20037;-55
2022/03/26 02:54:30;;;;;;;53.72;33.63;;;3.70;99.90;;;;;;5030110;28;20111;-54
2022/03/26 02:56:56;;;;;;;57.75;34.33;;;3.70;99.90;;;;;;5057853;28;20048;-54
2022/03/26 02:59:23;;;;;;;50.58;33.00;;;3.70;99.90;;;;;;5035774;28;20083;-53
2022/03/26 03:01:54;;;;;;;49.20;32.38;;;3.70;99.90;;;;;;5024311;28;20039;-52
2022/03/26 03:04:21;;;;;;;43.63;30.23;;;3.70;99.90;;;;;;5037216;28;20500;-53
2022/03/26 03:06:48;;;;;;;51.40;32.03;;;3.60;99.90;;;;;;5041087;28;20529;-58
2022/03/26 03:09:14;;;;;;;51.30;28.40;;;3.60;99.90;;;;;;5040818;28;20045;-57
2022/03/26 03:11:40;;;;;;;46.78;28.85;;;3.50;99.90;;;;;;5042853;28;20134;-58
2022/03/26 03:14:07;;;;;;;56.22;34.75;;;3.60;99.90;;;;;;5043230;28;20064;-57
2022/03/26 03:16:33;;;;;;;58.20;35.00;;;3.60;99.90;;;;;;5040816;28;20576;-57
2022/03/26 03:19:00;;;;;;;56.17;34.45;;;3.60;99.90;;;;;;5045046;28;20040;-57
2022/03/26 03:21:26;;;;;;;48.53;30.75;;;3.60;99.90;;;;;;5055012;28;20049;-57
2022/03/26 03:23:52;;;;;;;55.47;33.30;;;3.50;99.90;;;;;;5043798;28;20163;-57
2022/03/26 03:26:18;;;;;;;51.58;33.97;;;3.50;99.90;;;;;;5038616;28;20045;-53
2022/03/26 03:28:44;;;;;;;55.55;35.50;;;3.50;99.90;;;;;;5038032;28;20514;-52
2022/03/26 03:31:10;;;;;;;52.85;34.10;;;3.50;99.90;;;;;;5042861;28;20076;-52
2022/03/26 03:33:37;;;;;;;48.47;30.90;;;3.50;99.90;;;;;;5016807;28;20172;-54
2022/03/26 03:36:04;;;;;;;53.25;33.95;;;3.40;99.90;;;;;;5007382;28;20088;-52
2022/03/26 03:38:30;;;;;;;62.25;39.53;;;3.40;99.90;;;;;;5016537;28;20084;-55
2022/03/26 03:40:56;;;;;;;54.67;32.83;;;3.40;99.90;;;;;;5044022;28;20053;-53
2022/03/26 03:43:23;;;;;;;64.28;34.28;;;3.40;99.90;;;;;;5043842;28;20041;-57
2022/03/26 03:45:49;;;;;;;59.67;39.88;;;3.40;99.90;;;;;;5044098;28;20045;-57
2022/03/26 03:48:16;;;;;;;71.30;40.60;;;3.40;99.90;;;;;;5040279;28;20076;-57
2022/03/26 03:50:43;;;;;;;64.72;40.17;;;3.40;99.90;;;;;;5035089;28;20568;-57
2022/03/26 03:53:09;;;;;;;67.90;42.17;;;3.50;99.90;;;;;;5056007;28;20064;-58
2022/03/26 03:55:35;;;;;;;69.65;41.88;;;3.40;99.90;;;;;;5022999;28;20068;-57
2022/03/26 03:58:02;;;;;;;59.13;39.17;;;3.40;99.90;;;;;;5040362;28;20045;-57
2022/03/26 04:00:28;;;;;;;60.35;37.40;;;3.40;99.90;;;;;;5053855;28;20053;-57
2022/03/26 04:02:54;;;;;;;60.95;36.53;;;3.40;99.90;;;;;;5042887;28;20041;-57
2022/03/26 04:05:21;;;;;;;68.53;41.80;;;3.40;99.90;;;;;;5041440;28;20053;-58
2022/03/26 04:07:47;;;;;;;68.38;41.78;;;3.40;99.90;;;;;;5043425;28;20501;-57
2022/03/26 04:10:13;;;;;;;74.43;44.97;;;3.40;99.90;;;;;;5018592;28;20072;-58
2022/03/26 04:12:43;;;;;;;70.88;42.65;;;3.40;99.90;;;;;;5042357;28;20132;-57
2022/03/26 04:15:11;;;;;;;74.65;43.97;;;3.40;99.90;;;;;;5043962;28;20130;-54
2022/03/26 04:17:37;;;;;;;71.05;41.58;;;3.40;99.90;;;;;;5043246;28;20056;-51
2022/03/26 04:20:08;;;;;;;69.55;41.88;;;3.40;99.90;;;;;;5044311;28;20606;-51
2022/03/26 04:22:35;;;;;;;67.68;41.83;;;3.40;99.90;;;;;;5039415;28;20450;-54
2022/03/26 04:25:03;;;;;;;63.75;39.50;;;3.40;99.90;;;;;;5043046;28;20057;-54
2022/03/26 04:27:29;;;;;;;70.78;41.65;;;3.30;99.90;;;;;;5026642;28;20073;-53
2022/03/26 04:29:55;;;;;;;62.63;38.08;;;3.20;99.90;;;;;;5041465;28;20069;-53
2022/03/26 04:32:21;;;;;;;69.43;41.25;;;3.20;99.90;;;;;;5035371;28;20121;-56
2022/03/26 04:34:47;;;;;;;74.05;43.92;;;3.20;99.90;;;;;;5040453;28;20055;-54
2022/03/26 04:37:13;;;;;;;74.40;44.47;;;3.20;99.90;;;;;;5043794;28;20107;-53
2022/03/26 04:39:39;;;;;;;73.30;44.75;;;3.10;99.90;;;;;;5023346;28;20056;-53
2022/03/26 04:42:06;;;;;;;75.30;43.92;;;3.10;99.90;;;;;;5037018;28;20068;-55
2022/03/26 04:44:32;;;;;;;69.20;42.33;;;3.10;99.90;;;;;;5043143;28;20499;-55
2022/03/26 04:46:58;;;;;;;68.50;40.90;;;3.10;99.90;;;;;;5041569;28;20072;-53
2022/03/26 04:49:24;;;;;;;71.22;42.63;;;3.10;99.90;;;;;;5039187;28;20488;-55
2022/03/26 04:51:50;;;;;;;69.47;41.10;;;3.10;99.90;;;;;;5040527;28;20579;-54
2022/03/26 04:54:16;;;;;;;68.10;40.00;;;3.10;99.90;;;;;;5041279;28;20048;-53
2022/03/26 04:56:42;;;;;;;75.18;43.97;;;3.10;99.90;;;;;;5040998;28;20052;-53
2022/03/26 04:59:09;;;;;;;71.05;40.80;;;3.10;99.90;;;;;;5040891;28;20080;-55
2022/03/26 05:01:35;;;;;;;72.65;41.08;;;3.10;99.90;;;;;;5017662;28;20061;-55
2022/03/26 05:04:01;;;;;;;70.93;43.78;;;3.10;99.90;;;;;;5033942;28;20057;-54
2022/03/26 05:06:27;;;;;;;65.50;40.88;;;3.10;99.90;;;;;;5039853;28;20051;-54
2022/03/26 05:08:53;;;;;;;68.88;42.25;;;3.10;99.90;;;;;;5042639;28;20389;-54
2022/03/26 05:11:19;;;;;;;71.68;44.50;;;3.10;99.90;;;;;;5029777;28;20055;-54
2022/03/26 05:13:45;;;;;;;89.15;50.60;;;3.10;99.90;;;;;;5038091;28;20166;-54
2022/03/26 05:16:12;;;;;;;88.72;52.60;;;3.10;99.90;;;;;;5027195;28;20053;-54
2022/03/26 05:18:38;;;;;;;96.65;53.40;;;3.10;99.90;;;;;;5033067;28;20127;-52
2022/03/26 05:21:07;;;;;;;96.88;53.53;;;3.20;99.90;;;;;;5024499;28;20602;-51
2022/03/26 05:23:34;;;;;;;93.25;53.95;;;3.20;99.90;;;;;;5053515;28;20076;-53
2022/03/26 05:26:00;;;;;;;84.50;49.58;;;3.10;99.90;;;;;;5035217;28;20048;-54
2022/03/26 05:28:26;;;;;;;86.40;53.05;;;3.10;99.90;;;;;;5039474;28;20044;-54
2022/03/26 05:30:52;;;;;;;91.25;50.92;;;3.10;99.90;;;;;;5038069;28;20076;-54
2022/03/26 05:33:18;;;;;;;83.60;51.20;;;3.10;99.90;;;;;;5058320;28;20084;-54
2022/03/26 05:35:44;;;;;;;89.38;50.75;;;3.10;99.90;;;;;;5040613;28;20059;-52
2022/03/26 05:38:11;;;;;;;86.32;50.78;;;3.00;99.90;;;;;;5038862;28;20048;-51
2022/03/26 05:40:37;;;;;;;91.50;52.40;;;3.00;99.90;;;;;;5025278;28;20044;-52
2022/03/26 05:43:03;;;;;;;89.25;51.40;;;3.00;99.90;;;;;;5049205;28;20128;-53
2022/03/26 05:45:30;;;;;;;88.07;53.33;;;3.10;99.90;;;;;;5043619;28;20099;-52
2022/03/26 05:47:59;;;;;;;96.63;53.35;;;3.10;99.90;;;;;;5037458;28;20519;-52
2022/03/26 05:50:26;;;;;;;90.97;53.63;;;3.10;99.90;;;;;;5041514;28;20570;-52
2022/03/26 05:52:52;;;;;;;88.75;51.67;;;3.10;99.90;;;;;;5041038;28;20049;-54
2022/03/26 05:55:18;;;;;;;91.22;50.45;;;3.10;99.90;;;;;;5038040;28;20044;-54
2022/03/26 05:57:44;;;;;;;89.68;50.88;;;3.10;99.90;;;;;;5037045;28;20139;-55
2022/03/26 06:00:11;;;;;;;96.65;56.05;;;3.10;99.90;;;;;;5038130;28;20475;-51
2022/03/26 06:02:37;;;;;;;92.32;55.30;;;3.20;99.90;;;;;;5024790;28;20048;-51
2022/03/26 06:05:05;;;;;;;91.28;54.78;;;3.30;99.90;;;;;;5038101;28;20499;-53
2022/03/26 06:07:31;;;;;;;90.28;51.58;;;3.20;99.90;;;;;;5040790;28;20052;-53
2022/03/26 06:09:57;;;;;;;89.18;52.60;;;3.20;99.90;;;;;;5037684;28;20528;-55
2022/03/26 06:12:24;;;;;;;88.47;52.20;;;3.30;99.90;;;;;;5039589;28;20049;-55
2022/03/26 06:14:50;;;;;;;87.78;51.13;;;3.30;99.90;;;;;;5040599;28;20778;-54
2022/03/26 06:17:16;;;;;;;91.22;53.00;;;3.40;99.90;;;;;;5039515;28;20114;-54
2022/03/26 06:19:43;;;;;;;86.38;50.50;;;3.50;99.90;;;;;;5035199;28;20096;-58
2022/03/26 06:22:10;;;;;;;91.13;51.53;;;3.50;99.90;;;;;;5028161;28;20037;-57
2022/03/26 06:24:37;;;;;;;82.53;51.05;;;3.60;99.90;;;;;;5031662;28;20550;-57
2022/03/26 06:27:04;;;;;;;87.63;49.97;;;3.70;99.90;;;;;;5018141;28;20053;-58
2022/03/26 06:29:30;;;;;;;81.82;49.75;;;3.70;99.90;;;;;;5022298;28;20065;-57
2022/03/26 06:31:56;;;;;;;82.95;48.83;;;3.80;99.90;;;;;;5033749;28;20056;-55
2022/03/26 06:34:25;;;;;;;81.22;49.30;;;4.00;99.90;;;;;;5041305;28;20055;-53
2022/03/26 06:36:51;;;;;;;91.35;52.85;;;4.00;99.90;;;;;;5040336;28;20049;-57
2022/03/26 06:39:17;;;;;;;85.82;51.30;;;4.20;99.90;;;;;;5042372;28;20482;-55
2022/03/26 06:41:44;;;;;;;90.25;53.88;;;4.30;99.90;;;;;;5035182;28;20423;-57
2022/03/26 06:44:11;;;;;;;95.15;56.28;;;4.50;99.90;;;;;;5033103;28;20048;-57
2022/03/26 06:46:38;;;;;;;96.95;56.47;;;4.60;99.90;;;;;;5053228;28;20087;-55
2022/03/26 06:49:07;;;;;;;104.15;60.47;;;4.80;99.90;;;;;;5051325;28;20048;-56
2022/03/26 06:51:34;;;;;;;102.55;61.10;;;5.00;99.90;;;;;;5035063;28;20061;-53
2022/03/26 06:54:00;;;;;;;106.65;63.47;;;5.20;99.90;;;;;;5036069;28;20064;-59
2022/03/26 06:56:26;;;;;;;106.63;64.47;;;5.50;99.90;;;;;;5036716;28;20386;-55
2022/03/26 06:58:53;;;;;;;100.93;62.97;;;5.80;99.90;;;;;;5035319;28;20056;-56
2022/03/26 07:01:19;;;;;;;100.18;63.33;;;6.20;99.90;;;;;;5002492;28;20099;-57
2022/03/26 07:03:53;;;;;;;106.80;72.35;;;6.60;99.90;;;;;;5034908;28;20041;-59
2022/03/26 07:06:19;;;;;;;121.45;81.38;;;7.10;99.90;;;;;;5032791;28;20037;-59
2022/03/26 07:08:46;;;;;;;125.40;84.97;;;7.40;99.90;;;;;;5036053;28;20710;-59
2022/03/26 07:11:12;;;;;;;120.72;83.63;;;7.80;99.90;;;;;;5005510;28;20455;-59
2022/03/26 07:13:38;;;;;;;124.03;87.13;;;8.30;99.90;;;;;;5051698;28;20397;-58
2022/03/26 07:16:04;;;;;;;117.97;82.80;;;8.70;99.90;;;;;;5036217;28;20091;-59
2022/03/26 07:18:30;;;;;;;119.15;87.15;;;9.00;99.90;;;;;;5049682;28;20212;-57
2022/03/26 07:21:00;;;;;;;129.10;92.82;;;9.40;99.90;;;;;;5031710;28;20051;-56
2022/03/26 07:23:27;;;;;;;106.85;77.22;;;9.80;99.90;;;;;;5019646;28;20404;-57
2022/03/26 07:25:54;;;;;;;106.57;77.90;;;10.30;99.90;;;;;;5036312;28;20516;-57
2022/03/26 07:28:20;;;;;;;110.13;78.72;;;10.80;99.90;;;;;;5033036;28;20731;-57
2022/03/26 07:30:46;;;;;;;94.18;69.07;;;11.30;99.90;;;;;;5036584;28;20045;-57
2022/03/26 07:33:12;;;;;;;98.20;70.55;;;11.90;99.90;;;;;;5036475;28;20037;-56
2022/03/26 07:35:39;;;;;;;93.53;66.50;;;12.10;99.90;;;;;;5033560;28;20583;-56
2022/03/26 07:38:05;;;;;;;92.35;67.15;;;12.60;99.90;;;;;;5034579;28;20049;-56
2022/03/26 07:40:31;;;;;;;87.60;66.35;;;13.10;99.90;;;;;;5032912;28;20686;-60
2022/03/26 07:42:57;;;;;;;90.18;68.03;;;13.50;99.90;;;;;;5031434;28;20147;-57
2022/03/26 07:45:24;;;;;;;88.32;66.13;;;13.80;99.90;;;;;;5030851;28;20053;-57
2022/03/26 07:47:50;;;;;;;91.28;68.47;;;14.00;99.90;;;;;;5032007;28;20475;-57
2022/03/26 07:50:16;;;;;;;86.55;65.03;;;14.40;99.90;;;;;;5046436;28;20045;-58
2022/03/26 07:52:42;;;;;;;85.10;65.38;;;14.70;99.90;;;;;;5035130;28;20447;-57
2022/03/26 07:55:10;;;;;;;82.63;62.83;;;14.50;99.90;;;;;;5036443;28;20072;-55
2022/03/26 07:57:36;;;;;;;72.07;55.70;;;14.70;99.90;;;;;;5031060;28;20423;-54
2022/03/26 08:00:04;;;;;;;74.30;57.90;;;14.90;99.90;;;;;;5035234;28;20040;-58
2022/03/26 08:02:39;;;;;;;87.10;70.75;;;15.60;99.90;;;;;;5032751;28;20083;-58
2022/03/26 08:05:05;;;;;;;71.13;55.70;;;15.60;99.90;;;;;;5034842;28;20049;-57
2022/03/26 08:07:32;;;;;;;69.80;54.63;;;15.80;99.90;;;;;;5035221;28;20045;-57
2022/03/26 08:09:58;;;;;;;75.40;61.30;;;15.90;99.90;;;;;;5033040;28;20052;-57
2022/03/26 08:12:24;;;;;;;69.18;54.28;;;15.80;93.30;;;;;;5025084;28;20118;-55
2022/03/26 08:14:51;;;;;;;70.25;53.08;;;16.00;80.50;;;;;;5029596;28;20045;-56
2022/03/26 08:17:17;;;;;;;64.72;52.60;;;15.90;73.10;;;;;;5034147;28;20064;-58
2022/03/26 08:19:43;;;;;;;64.32;51.55;;;16.20;73.60;;;;;;5029857;28;20545;-56
2022/03/26 08:22:09;;;;;;;67.85;53.53;;;16.30;63.30;;;;;;5027342;28;20465;-56
2022/03/26 08:24:35;;;;;;;65.70;49.25;;;16.20;66.00;;;;;;5059102;28;20404;-56
2022/03/26 08:27:03;;;;;;;68.93;52.28;;;16.30;65.40;;;;;;5004619;28;20076;-56
2022/03/26 08:29:29;;;;;;;65.18;49.40;;;16.70;63.60;;;;;;5035897;28;20488;-56
2022/03/26 08:31:55;;;;;;;61.42;47.60;;;16.70;62.60;;;;;;5016284;28;20503;-58
2022/03/26 08:34:21;;;;;;;59.42;49.22;;;16.90;60.00;;;;;;5038915;28;20132;-56
2022/03/26 08:36:48;;;;;;;64.80;49.17;;;17.00;57.70;;;;;;5038790;28;20192;-57
2022/03/26 08:39:14;;;;;;;59.80;46.35;;;17.20;59.00;;;;;;5047100;28;20489;-57
2022/03/26 08:41:40;;;;;;;59.58;47.25;;;17.20;57.30;;;;;;5018876;28;20049;-58
2022/03/26 08:44:06;;;;;;;55.25;43.22;;;17.50;57.60;;;;;;5047572;28;20078;-59
2022/03/26 08:46:34;;;;;;;56.00;41.17;;;17.70;54.90;;;;;;5034868;28;20045;-58
2022/03/26 08:49:00;;;;;;;58.95;45.47;;;18.20;54.80;;;;;;5041403;28;20108;-57
2022/03/26 08:51:26;;;;;;;61.22;45.35;;;18.40;51.50;;;;;;5027207;28;20134;-57
2022/03/26 08:53:52;;;;;;;61.13;44.65;;;18.70;52.00;;;;;;5035655;28;20125;-60
2022/03/26 08:56:18;;;;;;;54.63;44.55;;;18.80;50.30;;;;;;5023824;28;20041;-57
2022/03/26 08:58:44;;;;;;;53.53;43.67;;;18.80;50.60;;;;;;5024257;28;20128;-57
2022/03/26 09:01:11;;;;;;;58.45;41.97;;;18.80;50.10;;;;;;5031606;28;20045;-58
2022/03/26 09:03:37;;;;;;;52.25;40.85;;;18.80;48.20;;;;;;5015815;28;20037;-58
2022/03/26 09:06:07;;;;;;;50.67;38.25;;;18.70;49.00;;;;;;5029692;28;20049;-58
2022/03/26 09:08:34;;;;;;;49.45;38.55;;;19.60;47.20;;;;;;5047950;28;20084;-58
2022/03/26 09:11:00;;;;;;;49.97;37.72;;;19.70;47.60;;;;;;5035680;28;20041;-58
2022/03/26 09:13:26;;;;;;;51.30;35.78;;;20.40;47.40;;;;;;5034397;28;20126;-58
2022/03/26 09:15:52;;;;;;;47.35;33.72;;;20.70;44.50;;;;;;5030884;28;20123;-58
2022/03/26 09:18:18;;;;;;;42.95;33.45;;;20.70;44.30;;;;;;5040569;28;20052;-58
2022/03/26 09:20:44;;;;;;;46.28;33.75;;;21.10;44.20;;;;;;5042251;28;20045;-57
2022/03/26 09:23:11;;;;;;;44.78;34.47;;;21.10;43.90;;;;;;5004902;28;20130;-58
2022/03/26 09:25:37;;;;;;;44.17;33.05;;;21.30;43.60;;;;;;5034499;28;20585;-58
2022/03/26 09:28:03;;;;;;;42.60;30.30;;;21.70;43.00;;;;;;5033330;28;20044;-58
2022/03/26 09:30:31;;;;;;;40.38;30.15;;;21.70;42.50;;;;;;5039578;28;20522;-58
2022/03/26 09:32:58;;;;;;;40.95;31.65;;;21.40;42.80;;;;;;5027808;28;20530;-58
2022/03/26 09:35:25;;;;;;;39.78;32.63;;;21.70;42.60;;;;;;5032176;28;20053;-58
2022/03/26 09:37:51;;;;;;;35.72;29.55;;;21.90;42.70;;;;;;5019783;28;20133;-58
2022/03/26 09:40:19;;;;;;;37.53;30.23;;;22.10;42.70;;;;;;5053040;28;20057;-58
2022/03/26 09:42:45;;;;;;;39.80;31.70;;;22.60;42.30;;;;;;5026233;28;20056;-58
2022/03/26 09:45:12;;;;;;;37.78;28.95;;;22.60;41.70;;;;;;5036062;28;20467;-58
2022/03/26 09:47:38;;;;;;;37.13;30.00;;;23.00;42.00;;;;;;5037788;28;20103;-57
2022/03/26 09:50:09;;;;;;;33.95;28.13;;;23.30;41.60;;;;;;5030101;28;20429;-58
2022/03/26 09:52:36;;;;;;;35.47;28.17;;;23.20;41.00;;;;;;5037072;28;20134;-57
2022/03/26 09:55:04;;;;;;;31.45;27.63;;;22.80;41.80;;;;;;5022015;28;20057;-57
2022/03/26 09:57:31;;;;;;;32.80;28.98;;;22.80;41.40;;;;;;5034006;28;20368;-57
2022/03/26 10:00:00;;;;;;;32.67;27.38;;;22.90;41.90;;;;;;5028501;28;20505;-57
2022/03/26 10:02:26;;;;;;;42.58;27.88;;;23.20;41.70;;;;;;5025880;28;20045;-57
2022/03/26 10:04:52;;;;;;;29.65;24.77;;;23.20;41.80;;;;;;5048112;28;20555;-57
2022/03/26 10:07:30;;;;;;;29.65;24.85;;;23.10;41.20;;;;;;5021018;28;20042;-57
2022/03/26 10:09:57;;;;;;;33.03;27.40;;;23.40;42.10;;;;;;5035740;28;20049;-57
2022/03/26 10:12:25;;;;;;;31.27;27.33;;;23.50;42.10;;;;;;5035380;28;20622;-57
2022/03/26 10:14:59;;;;;;;28.58;25.58;;;23.50;41.80;;;;;;5040076;28;20060;-57
2022/03/26 10:17:34;;;;;;;27.55;23.52;;;23.60;41.80;;;;;;5039510;28;20364;-57
2022/03/26 10:20:10;;;;;;;26.70;23.33;;;24.10;41.70;;;;;;5039701;28;20052;-57
2022/03/26 10:22:44;;;;;;;26.38;23.50;;;23.70;41.00;;;;;;5027871;28;20377;-57
2022/03/26 10:25:14;;;;;;;24.50;21.70;;;23.30;42.20;;;;;;5036510;28;20068;-57
2022/03/26 10:27:46;;;;;;;23.65;20.25;;;23.70;41.10;;;;;;5050249;28;20398;-57
2022/03/26 10:30:17;;;;;;;27.00;24.00;;;23.20;41.80;;;;;;5033596;28;20085;-58
2022/03/26 10:32:49;;;;;;;25.92;20.42;;;24.10;41.40;;;;;;5048452;28;20053;-57
2022/03/26 10:35:18;;;;;;;23.45;20.52;;;24.10;41.00;;;;;;5055680;28;20159;-57
2022/03/26 10:37:59;;;;;;;22.73;20.08;;;24.40;41.10;;;;;;5032612;28;20049;-57
2022/03/26 10:40:34;;;;;;;20.25;17.60;;;24.40;41.00;;;;;;5027292;28;20156;-57
2022/03/26 10:43:04;;;;;;;18.75;16.75;;;25.00;40.30;;;;;;5043635;28;20045;-57
2022/03/26 10:45:32;;;;;;;20.70;18.50;;;24.50;40.10;;;;;;5046054;28;20048;-57
2022/03/26 10:48:00;;;;;;;21.73;19.42;;;24.70;40.90;;;;;;5039734;28;20037;-57
2022/03/26 10:50:31;;;;;;;16.70;13.98;;;24.80;40.60;;;;;;5044012;28;20053;-57
2022/03/26 10:52:57;;;;;;;17.70;13.98;;;24.80;39.60;;;;;;5025729;28;20104;-58
2022/03/26 10:55:24;;;;;;;19.45;15.70;;;25.10;39.50;;;;;;5030940;28;20433;-57
2022/03/26 10:57:50;;;;;;;16.13;12.68;;;25.10;39.70;;;;;;5043247;28;20049;-57
2022/03/26 11:00:18;;;;;;;16.05;13.57;;;25.30;39.10;;;;;;5041283;28;20049;-57
2022/03/26 11:02:45;;;;;;;16.33;14.65;;;25.60;39.00;;;;;;5036623;28;20045;-58
2022/03/26 11:05:12;;;;;;;16.27;13.65;;;25.00;39.60;;;;;;5030003;28;20102;-58
2022/03/26 11:07:42;;;;;;;15.05;13.38;;;25.30;39.90;;;;;;5043902;28;20135;-58
2022/03/26 11:10:12;;;;;;;16.05;12.60;;;25.30;38.90;;;;;;5037847;28;20428;-56
2022/03/26 11:12:44;;;;;;;18.42;12.10;;;25.50;38.50;;;;;;5049386;28;20041;-54
2022/03/26 11:15:15;;;;;;;17.83;13.52;;;25.50;38.60;;;;;;5027346;28;20076;-56
2022/03/26 11:17:55;;;;;;;17.38;14.20;;;25.40;38.70;;;;;;5051235;28;20053;-56
2022/03/26 11:20:53;;;;;;;14.48;12.98;;;25.10;38.00;;;;;;5034729;28;20134;-55
2022/03/26 11:23:39;;;;;;;13.90;12.05;;;25.20;38.20;;;;;;5031088;28;20044;-59
2022/03/26 11:26:22;;;;;;;13.57;12.18;;;25.10;39.20;;;;;;5044104;28;20060;-58
2022/03/26 11:28:58;;;;;;;15.52;13.88;;;25.30;38.30;;;;;;5040200;28;20399;-58
2022/03/26 11:32:00;;;;;;;17.08;14.27;;;25.70;38.30;;;;;;5042286;28;20611;-57
2022/03/26 11:34:35;;;;;;;14.80;13.30;;;26.10;37.20;;;;;;5029099;28;20051;-57
2022/03/26 11:37:12;;;;;;;17.08;14.60;;;26.00;37.90;;;;;;5037522;28;20382;-57
2022/03/26 11:39:56;;;;;;;17.35;15.65;;;26.20;37.10;;;;;;5040935;28;20041;-57
2022/03/26 11:42:35;;;;;;;17.05;15.25;;;25.60;37.80;;;;;;5041406;28;20551;-57
2022/03/26 11:50:46;;;;;;;18.05;15.75;;;26.00;38.40;;;;;;5048812;28;20056;-58
2022/03/26 11:53:34;;;;;;;19.95;17.90;;;25.70;38.70;;;;;;5043911;28;20072;-55
2022/03/26 11:56:04;;;;;;;14.20;12.80;;;25.90;38.20;;;;;;5058668;28;20052;-55
2022/03/26 11:58:30;;;;;;;18.02;16.23;;;26.10;38.00;;;;;;5029636;28;20045;-56
2022/03/26 12:01:00;;;;;;;18.00;15.40;;;25.90;37.70;;;;;;5008745;28;20152;-56
2022/03/26 12:03:29;;;;;;;19.17;15.10;;;25.90;38.20;;;;;;5043893;28;20138;-56
2022/03/26 12:08:55;;;;;;;15.18;11.07;;;26.00;37.90;;;;;;5023295;28;20080;-57
2022/03/26 12:12:11;;;;;;;13.48;10.98;;;26.10;38.10;;;;;;5047658;28;20072;-57
2022/03/26 12:15:05;;;;;;;13.38;10.38;;;26.00;37.50;;;;;;5016520;28;20052;-57
2022/03/26 12:17:44;;;;;;;11.23;9.23;;;26.30;37.40;;;;;;5056029;28;20092;-56
2022/03/26 12:20:26;;;;;;;12.70;11.10;;;26.00;36.30;;;;;;5056246;28;20167;-57
2022/03/26 12:23:04;;;;;;;19.17;17.17;;;26.10;37.90;;;;;;5036627;28;20049;-57
2022/03/26 12:25:49;;;;;;;13.25;11.20;;;26.30;37.20;;;;;;5042929;28;20052;-58
2022/03/26 12:28:31;;;;;;;65.70;59.30;;;26.00;37.60;;;;;;5040623;28;20032;-60
2022/03/26 12:30:59;;;;;;;19.42;17.40;;;26.50;37.90;;;;;;5051679;28;20044;-61
2022/03/26 12:33:26;;;;;;;18.30;16.17;;;26.10;37.70;;;;;;5042854;28;20048;-60
2022/03/26 12:35:54;;;;;;;14.43;12.77;;;26.30;37.90;;;;;;5038406;28;20510;-60
2022/03/26 12:38:22;;;;;;;17.95;16.25;;;25.90;37.60;;;;;;5040957;28;20056;-60
2022/03/26 12:40:54;;;;;;;11.43;8.10;;;25.60;37.80;;;;;;5041034;28;20041;-60
2022/03/26 12:43:21;;;;;;;16.48;11.45;;;25.80;37.50;;;;;;5036092;28;20044;-60
2022/03/26 12:45:47;;;;;;;8.52;7.18;;;26.00;37.60;;;;;;5042052;28;20068;-60